createdAt,value
2017-06-16T00:00:38.647Z,90.70
2017-06-16T00:03:06.194Z,90.60
2017-06-16T00:05:33.651Z,90.10
2017-06-16T00:08:01.106Z,89.90
2017-06-16T00:10:28.566Z,90.50
2017-06-16T00:12:56.122Z,90.70
2017-06-16T00:15:23.587Z,91.20
2017-06-16T00:17:51.038Z,91.20
2017-06-16T00:20:18.554Z,91.10
2017-06-16T00:22:46.014Z,90.80
2017-06-16T00:25:13.507Z,91.10
2017-06-16T00:27:40.962Z,91.10
2017-06-16T00:30:08.438Z,91.20
2017-06-16T00:32:36.696Z,91.30
2017-06-16T00:35:04.150Z,91.30
2017-06-16T00:37:31.712Z,91.40
2017-06-16T00:39:59.272Z,91.70
2017-06-16T00:42:26.735Z,92.00
2017-06-16T00:44:55.003Z,92.60
2017-06-16T00:47:22.466Z,92.40
2017-06-16T00:49:50.006Z,92.90
2017-06-16T00:52:17.478Z,93.10
2017-06-16T00:54:45.026Z,93.00
2017-06-16T00:57:12.486Z,92.10
2017-06-16T00:59:40.043Z,91.60
2017-06-16T01:02:07.513Z,91.50
2017-06-16T01:04:34.958Z,91.60
2017-06-16T01:07:02.415Z,91.20
2017-06-16T01:09:29.971Z,90.80
2017-06-16T01:11:58.206Z,90.50
2017-06-16T01:14:25.666Z,90.40
2017-06-16T01:16:53.126Z,90.60
2017-06-16T01:19:20.594Z,90.90
2017-06-16T01:21:48.070Z,90.70
2017-06-16T01:24:15.535Z,91.00
2017-06-16T01:26:42.982Z,90.60
2017-06-16T01:29:10.543Z,90.70
2017-06-16T01:31:38.090Z,89.20
2017-06-16T01:34:05.542Z,88.80
2017-06-16T01:36:33.001Z,88.00
2017-06-16T01:39:00.458Z,87.40
2017-06-16T01:41:27.923Z,86.80
2017-06-16T01:43:55.384Z,85.50
2017-06-16T01:46:22.847Z,85.00
2017-06-16T01:48:50.302Z,84.50
2017-06-16T01:51:17.851Z,84.70
2017-06-16T01:53:45.298Z,84.90
2017-06-16T01:56:12.770Z,85.00
2017-06-16T01:58:40.222Z,85.10
2017-06-16T02:01:07.674Z,83.50
2017-06-16T02:03:35.143Z,83.40
2017-06-16T02:06:02.599Z,83.20
2017-06-16T02:08:30.058Z,82.50
2017-06-16T02:10:58.282Z,82.10
2017-06-16T02:13:25.778Z,82.10
2017-06-16T02:15:53.250Z,81.00
2017-06-16T02:18:20.702Z,80.80
2017-06-16T02:20:49.001Z,79.10
2017-06-16T02:23:17.238Z,78.60
2017-06-16T02:25:44.694Z,78.40
2017-06-16T02:28:12.126Z,77.60
2017-06-16T02:30:40.392Z,77.70
2017-06-16T02:33:07.884Z,77.30
2017-06-16T02:35:35.351Z,77.20
2017-06-16T02:38:02.890Z,76.50
2017-06-16T02:40:30.360Z,76.60
2017-06-16T02:42:57.817Z,76.20
2017-06-16T02:45:25.372Z,74.80
2017-06-16T02:47:52.825Z,75.00
2017-06-16T02:50:20.290Z,74.20
2017-06-16T02:52:47.745Z,73.60
2017-06-16T02:55:15.206Z,73.10
2017-06-16T02:57:42.655Z,72.80
2017-06-16T03:00:10.118Z,72.90
2017-06-16T03:02:37.666Z,72.90
2017-06-16T03:05:05.221Z,72.60
2017-06-16T03:07:32.782Z,72.60
2017-06-16T03:10:00.243Z,72.60
2017-06-16T03:12:27.793Z,72.90
2017-06-16T03:14:55.354Z,72.60
2017-06-16T03:17:22.823Z,72.20
2017-06-16T03:19:50.278Z,71.10
2017-06-16T03:22:17.746Z,71.10
2017-06-16T03:24:51.666Z,71.60
2017-06-16T03:27:19.191Z,71.20
2017-06-16T03:29:46.643Z,70.80
2017-06-16T03:32:14.094Z,70.00
2017-06-16T03:34:41.654Z,70.40
2017-06-16T03:37:09.137Z,70.50
2017-06-16T03:39:37.358Z,70.20
2017-06-16T03:42:04.815Z,70.10
2017-06-16T03:44:32.306Z,69.20
2017-06-16T03:46:59.763Z,68.50
2017-06-16T03:49:27.317Z,68.60
2017-06-16T03:51:54.774Z,67.50
2017-06-16T03:54:22.402Z,66.60
2017-06-16T03:56:49.886Z,66.70
2017-06-16T03:59:17.345Z,67.10
2017-06-16T04:01:44.806Z,66.00
2017-06-16T04:04:12.279Z,66.40
2017-06-16T04:06:39.763Z,66.70
2017-06-16T04:09:07.219Z,65.70
2017-06-16T04:11:34.671Z,65.40
2017-06-16T04:14:02.124Z,64.10
2017-06-16T04:16:29.582Z,64.10
2017-06-16T04:18:57.043Z,64.00
2017-06-16T04:21:24.514Z,64.30
2017-06-16T04:23:52.014Z,64.20
2017-06-16T04:26:19.479Z,64.00
2017-06-16T04:28:46.925Z,64.20
2017-06-16T07:24:38.792Z,55.90
2017-06-16T07:27:06.260Z,56.90
2017-06-16T07:29:33.766Z,58.00
2017-06-16T07:32:01.324Z,57.40
2017-06-16T07:34:28.782Z,57.80
2017-06-16T07:36:56.267Z,58.20
2017-06-16T07:39:23.717Z,59.00
2017-06-16T07:41:51.955Z,57.90
2017-06-16T07:44:19.518Z,58.00
2017-06-16T07:46:46.978Z,58.80
2017-06-16T07:49:14.438Z,58.00
2017-06-16T07:51:41.994Z,57.30
2017-06-16T07:54:09.463Z,57.10
2017-06-16T07:56:37.694Z,57.80
2017-06-16T07:59:05.165Z,57.80
2017-06-16T08:01:32.611Z,57.60
2017-06-16T08:04:00.058Z,58.30
2017-06-16T08:06:27.514Z,57.80
2017-06-16T08:08:54.970Z,58.80
2017-06-16T08:11:22.430Z,59.30
2017-06-16T08:13:49.888Z,58.00
2017-06-16T08:16:17.346Z,57.30
2017-06-16T08:18:44.798Z,57.50
2017-06-16T08:21:12.284Z,56.80
2017-06-16T08:23:39.743Z,56.60
2017-06-16T08:26:07.203Z,56.60
2017-06-16T08:28:34.659Z,57.80
2017-06-16T08:31:02.131Z,56.50
2017-06-16T08:33:30.349Z,56.20
2017-06-16T08:35:57.849Z,56.20
2017-06-16T08:38:25.312Z,57.00
2017-06-16T08:40:52.863Z,57.60
2017-06-16T08:43:20.426Z,57.60
2017-06-16T08:45:47.882Z,56.20
2017-06-16T08:48:15.339Z,56.90
2017-06-16T08:50:42.790Z,56.20
2017-06-16T08:53:10.341Z,57.20
2017-06-16T08:55:37.786Z,56.30
2017-06-16T08:58:05.245Z,55.20
2017-06-16T09:00:32.706Z,54.60
2017-06-16T09:03:00.275Z,54.40
2017-06-16T09:05:27.726Z,54.30
2017-06-16T09:07:55.284Z,54.90
2017-06-16T09:10:22.738Z,53.90
2017-06-16T09:12:50.191Z,53.40
2017-06-16T09:15:17.750Z,54.40
2017-06-16T09:17:45.311Z,53.40
2017-06-16T09:20:12.875Z,53.60
2017-06-16T09:22:40.331Z,53.10
2017-06-16T09:25:07.798Z,54.90
2017-06-16T09:27:35.346Z,55.70
2017-06-16T09:30:02.806Z,54.70
2017-06-16T09:32:30.358Z,54.00
2017-06-16T09:34:57.818Z,52.60
2017-06-16T09:37:25.374Z,52.80
2017-06-16T09:39:52.934Z,52.90
2017-06-16T09:42:20.391Z,51.80
2017-06-16T09:44:47.851Z,51.10
2017-06-16T09:47:15.303Z,50.70
2017-06-16T09:49:42.771Z,51.70
2017-06-16T09:52:10.219Z,51.60
2017-06-16T09:54:37.671Z,51.70
2017-06-16T09:57:05.130Z,51.60
2017-06-16T09:59:32.586Z,51.50
2017-06-16T10:02:00.043Z,51.70
2017-06-16T10:04:27.495Z,51.90
2017-06-16T10:06:54.953Z,51.10
2017-06-16T10:09:22.418Z,50.10
2017-06-16T10:11:49.878Z,50.50
2017-06-16T10:14:18.103Z,51.30
2017-06-16T10:16:45.569Z,50.50
2017-06-16T10:19:13.054Z,52.90
2017-06-16T10:21:40.522Z,52.10
2017-06-16T10:24:08.755Z,51.70
2017-06-16T10:26:36.335Z,51.30
2017-06-16T10:29:03.791Z,51.80
2017-06-16T10:31:31.251Z,50.60
2017-06-16T10:33:58.718Z,50.70
2017-06-16T10:36:26.267Z,49.90
2017-06-16T10:38:53.726Z,50.70
2017-06-16T10:41:21.182Z,49.70
2017-06-16T10:43:48.642Z,49.70
2017-06-16T10:46:16.195Z,48.80
2017-06-16T10:48:43.654Z,49.30
2017-06-16T10:51:11.110Z,48.70
2017-06-16T10:53:38.670Z,48.90
2017-06-16T10:56:06.133Z,46.60
2017-06-16T10:58:33.594Z,46.80
2017-06-16T11:01:01.854Z,46.60
2017-06-16T11:03:29.337Z,46.60
2017-06-16T11:05:57.549Z,46.10
2017-06-16T11:08:25.010Z,46.10
2017-06-16T11:10:52.468Z,47.20
2017-06-16T11:13:19.920Z,47.20
2017-06-16T11:15:47.387Z,45.80
2017-06-16T11:18:14.841Z,46.90
2017-06-16T11:20:42.307Z,45.80
2017-06-16T11:23:09.780Z,46.60
2017-06-16T11:25:37.250Z,47.70
2017-06-16T11:28:04.694Z,45.90
2017-06-16T11:30:32.163Z,47.60
2017-06-16T11:33:00.386Z,46.00
2017-06-16T11:35:27.886Z,45.40
2017-06-16T11:37:55.334Z,47.40
2017-06-16T11:40:22.887Z,45.80
2017-06-16T11:42:50.334Z,47.30
2017-06-16T11:45:17.792Z,46.50
2017-06-16T11:47:45.251Z,45.50
2017-06-16T11:50:12.703Z,44.90
2017-06-16T11:52:40.176Z,44.30
2017-06-16T11:55:07.635Z,43.00
2017-06-16T11:57:35.096Z,44.60
2017-06-16T12:00:02.542Z,45.90
2017-06-16T12:02:30.011Z,44.90
2017-06-16T12:04:57.550Z,44.40
2017-06-16T12:07:25.020Z,45.00
2017-06-16T12:09:52.574Z,45.80
2017-06-16T12:12:20.039Z,44.80
2017-06-16T12:14:47.587Z,44.90
2017-06-16T12:17:15.043Z,44.40
2017-06-16T12:19:42.600Z,44.20
2017-06-16T12:22:10.050Z,45.10
2017-06-16T12:24:37.511Z,43.10
2017-06-16T12:27:04.963Z,40.70
2017-06-16T12:29:32.426Z,41.50
2017-06-16T12:31:59.886Z,41.30
2017-06-16T12:34:27.344Z,42.10
2017-06-16T12:36:54.798Z,44.70
2017-06-16T12:39:22.355Z,44.00
2017-06-16T12:41:49.821Z,44.40
2017-06-16T12:44:17.266Z,42.10
2017-06-16T12:46:44.726Z,43.60
2017-06-16T12:49:12.203Z,43.70
2017-06-16T12:51:40.430Z,44.90
2017-06-16T12:54:07.894Z,44.90
2017-06-16T12:56:35.351Z,43.20
2017-06-16T12:59:02.807Z,44.40
2017-06-16T13:01:30.374Z,44.00
2017-06-16T13:03:57.938Z,42.70
2017-06-16T13:06:26.410Z,42.60
2017-06-16T13:08:53.864Z,42.80
2017-06-16T13:11:21.431Z,44.20
2017-06-16T13:13:48.895Z,43.90
2017-06-16T13:16:16.358Z,43.80
2017-06-16T13:18:44.587Z,44.80
2017-06-16T13:21:12.062Z,44.80
2017-06-16T13:23:39.518Z,45.80
2017-06-16T13:26:06.982Z,45.00
2017-06-16T13:28:34.438Z,45.40
2017-06-16T13:31:01.895Z,44.70
2017-06-16T13:33:29.362Z,45.20
2017-06-16T13:35:56.814Z,44.00
2017-06-16T13:38:24.279Z,45.70
2017-06-16T13:40:51.831Z,44.90
2017-06-16T13:43:19.290Z,45.10
2017-06-16T13:45:46.743Z,44.70
2017-06-16T13:48:14.207Z,46.00
2017-06-16T13:50:41.658Z,45.40
2017-06-16T13:53:09.212Z,44.20
2017-06-16T13:55:36.654Z,45.40
2017-06-16T13:58:04.114Z,44.80
2017-06-16T14:00:31.566Z,44.60
2017-06-16T14:02:59.046Z,45.60
2017-06-16T14:05:26.595Z,47.00
2017-06-16T14:07:54.058Z,47.80
2017-06-16T14:10:21.520Z,44.20
2017-06-16T14:12:48.967Z,43.00
2017-06-16T14:15:16.431Z,42.80
2017-06-16T14:17:43.979Z,43.20
2017-06-16T14:20:11.407Z,43.40
2017-06-16T14:22:38.991Z,42.90
2017-06-16T14:25:06.450Z,43.00
2017-06-16T14:27:33.905Z,43.90
2017-06-16T14:30:01.370Z,43.20
2017-06-16T14:32:28.822Z,44.00
2017-06-16T14:34:56.286Z,43.80
2017-06-16T14:37:24.510Z,42.30
2017-06-16T14:39:51.998Z,41.90
2017-06-16T14:42:19.450Z,41.50
2017-06-16T14:44:46.906Z,42.10
2017-06-16T14:47:14.362Z,41.30
2017-06-16T14:49:41.934Z,42.60
2017-06-16T14:52:09.490Z,42.10
2017-06-16T14:54:36.950Z,43.20
2017-06-16T14:57:04.498Z,44.50
2017-06-16T14:59:31.949Z,42.40
2017-06-16T15:01:59.517Z,41.30
2017-06-16T15:04:27.082Z,41.90
2017-06-16T15:06:54.538Z,42.10
2017-06-16T15:09:22.087Z,43.60
2017-06-16T15:11:49.555Z,42.80
2017-06-16T15:14:17.011Z,42.40
2017-06-16T15:16:44.491Z,40.60
2017-06-16T15:19:12.707Z,41.30
2017-06-16T15:21:40.166Z,41.20
2017-06-16T15:24:07.654Z,41.90
2017-06-16T15:26:35.169Z,42.20
2017-06-16T15:29:02.634Z,42.10
2017-06-16T15:31:30.114Z,41.40
2017-06-16T15:33:57.578Z,42.30
2017-06-16T15:36:25.035Z,42.90
2017-06-16T15:38:52.498Z,43.10
2017-06-16T15:41:20.051Z,42.10
2017-06-16T15:43:47.515Z,42.70
2017-06-16T15:46:14.961Z,43.80
2017-06-16T15:48:42.418Z,42.90
2017-06-16T15:51:09.880Z,42.30
2017-06-16T15:53:37.339Z,42.70
2017-06-16T15:56:04.899Z,42.20
2017-06-16T15:58:32.355Z,42.30
2017-06-16T16:00:59.810Z,42.90
2017-06-16T16:03:27.351Z,43.50
2017-06-16T16:05:54.910Z,43.60
2017-06-16T16:08:22.483Z,44.20
2017-06-16T16:10:50.025Z,42.10
2017-06-16T16:13:17.482Z,42.20
2017-06-16T16:15:44.946Z,42.20
2017-06-16T16:18:12.403Z,43.30
2017-06-16T16:20:39.858Z,43.00
2017-06-16T16:23:07.315Z,43.30
2017-06-16T16:25:34.787Z,43.00
2017-06-16T16:28:03.046Z,43.50
2017-06-16T16:30:30.510Z,43.60
2017-06-16T16:32:57.970Z,43.70
2017-06-16T16:35:26.241Z,45.00
2017-06-16T16:37:53.798Z,44.90
2017-06-16T16:40:21.247Z,44.40
2017-06-16T16:42:48.707Z,44.70
2017-06-16T16:45:16.159Z,44.90
2017-06-16T16:47:43.629Z,45.50
2017-06-16T16:50:11.074Z,44.80
2017-06-16T16:52:38.530Z,45.90
2017-06-16T16:55:05.990Z,44.80
2017-06-16T16:57:33.443Z,44.20
2017-06-16T17:00:00.906Z,44.30
2017-06-16T17:02:28.462Z,45.00
2017-06-16T17:04:55.922Z,44.80
2017-06-16T17:07:23.474Z,45.10
2017-06-16T17:09:50.935Z,45.80
2017-06-16T17:12:18.485Z,45.60
2017-06-16T17:14:46.037Z,45.50
2017-06-16T17:17:13.494Z,45.30
2017-06-16T17:19:41.050Z,45.40
2017-06-16T17:22:08.507Z,46.30
2017-06-16T17:24:35.957Z,46.00
2017-06-16T17:27:03.419Z,46.30
2017-06-16T17:29:30.979Z,46.50
2017-06-16T17:31:58.542Z,47.50
2017-06-16T17:34:25.997Z,46.70
2017-06-16T17:36:53.463Z,47.00
2017-06-16T17:39:21.014Z,46.40
2017-06-16T17:41:48.478Z,46.70
2017-06-16T17:44:15.930Z,47.40
2017-06-16T17:46:43.395Z,46.90
2017-06-16T17:49:10.938Z,46.90
2017-06-16T17:51:38.417Z,47.40
2017-06-16T17:54:06.663Z,47.40
2017-06-16T17:56:34.134Z,47.40
2017-06-16T17:59:01.597Z,48.00
2017-06-16T18:01:29.817Z,47.80
2017-06-16T18:03:57.283Z,48.30
2017-06-16T18:06:24.738Z,48.50
2017-06-16T18:08:52.202Z,48.60
2017-06-16T18:11:19.671Z,49.10
2017-06-16T18:13:47.125Z,49.10
2017-06-16T18:16:14.594Z,49.30
2017-06-16T18:18:42.055Z,49.50
2017-06-16T18:21:09.510Z,50.10
2017-06-16T18:23:37.070Z,50.10
2017-06-16T18:26:04.527Z,49.90
2017-06-16T18:28:32.083Z,49.60
2017-06-16T18:30:59.538Z,50.10
2017-06-16T18:33:26.999Z,49.90
2017-06-16T18:35:54.462Z,49.30
2017-06-16T18:38:22.726Z,49.20
2017-06-16T18:40:50.198Z,49.70
2017-06-16T18:43:18.418Z,50.70
2017-06-16T18:45:45.929Z,50.20
2017-06-16T18:48:14.153Z,49.60
2017-06-16T18:50:41.650Z,49.50
2017-06-16T18:53:09.202Z,50.00
2017-06-16T18:55:36.662Z,49.60
2017-06-16T18:58:04.114Z,49.70
2017-06-16T19:00:31.583Z,50.90
2017-06-16T19:02:59.138Z,50.10
2017-06-16T19:05:26.590Z,50.70
2017-06-16T19:07:54.050Z,50.40
2017-06-16T19:10:21.511Z,50.20
2017-06-16T19:12:48.973Z,50.70
2017-06-16T19:15:17.190Z,50.90
2017-06-16T19:17:44.650Z,50.90
2017-06-16T19:20:12.144Z,51.00
2017-06-16T19:22:40.566Z,50.70
2017-06-16T19:25:08.026Z,50.60
2017-06-16T19:27:35.488Z,51.30
2017-06-16T19:30:02.949Z,51.50
2017-06-16T19:32:30.426Z,51.60
2017-06-16T19:34:57.918Z,52.00
2017-06-16T19:37:25.379Z,51.90
2017-06-16T19:39:53.635Z,52.20
2017-06-16T19:42:21.086Z,52.20
2017-06-16T19:44:48.542Z,52.20
2017-06-16T19:47:15.999Z,52.40
2017-06-16T19:49:43.458Z,52.90
2017-06-16T19:52:10.911Z,52.80
2017-06-16T19:54:38.475Z,52.50
2017-06-16T19:57:06.038Z,52.80
2017-06-16T19:59:33.502Z,53.60
2017-06-16T20:02:00.958Z,54.10
2017-06-16T20:04:28.420Z,53.80
2017-06-16T20:06:56.682Z,54.70
2017-06-16T20:09:24.146Z,54.70
2017-06-16T20:11:51.595Z,54.30
2017-06-16T20:14:19.867Z,55.20
2017-06-16T20:16:47.426Z,55.20
2017-06-16T20:19:14.990Z,55.50
2017-06-16T20:21:42.456Z,55.50
2017-06-16T20:24:10.683Z,56.20
2017-06-16T20:26:38.955Z,56.10
2017-06-16T20:29:06.411Z,56.00
2017-06-16T20:31:33.878Z,56.30
2017-06-16T20:34:01.362Z,57.10
2017-06-16T20:36:28.834Z,56.20
2017-06-16T20:38:57.094Z,57.00
2017-06-16T20:41:24.595Z,56.50
2017-06-16T20:43:52.046Z,56.40
2017-06-16T20:46:19.502Z,56.60
2017-06-16T20:48:46.973Z,57.00
2017-06-16T20:51:14.479Z,56.70
2017-06-16T20:53:41.947Z,57.10
2017-06-16T20:56:10.171Z,58.20
2017-06-16T20:58:37.667Z,58.20
2017-06-16T21:01:05.122Z,57.40
2017-06-16T21:03:32.578Z,56.70
2017-06-16T21:06:00.039Z,57.80
2017-06-16T21:08:27.510Z,57.50
2017-06-16T21:10:55.741Z,57.30
2017-06-16T21:13:23.212Z,57.30
2017-06-16T21:15:50.668Z,57.50
2017-06-16T21:18:18.235Z,57.70
2017-06-16T21:20:45.707Z,58.80
2017-06-16T21:23:13.927Z,58.80
2017-06-16T21:25:41.421Z,58.70
2017-06-16T21:28:08.876Z,59.10
2017-06-16T21:30:36.336Z,58.90
2017-06-16T21:33:03.807Z,59.00
2017-06-16T21:35:32.035Z,58.20
2017-06-16T21:37:59.522Z,58.20
2017-06-16T21:40:27.082Z,58.70
2017-06-16T21:42:54.538Z,58.80
2017-06-16T21:45:22.017Z,59.30
2017-06-16T21:47:49.478Z,58.90
2017-06-16T21:50:16.937Z,58.80
2017-06-16T21:52:44.403Z,59.70
2017-06-16T21:55:11.858Z,58.30
2017-06-16T21:57:39.328Z,58.90
2017-06-16T22:02:37.115Z,58.10
2017-06-16T22:05:04.579Z,58.20
2017-06-16T22:07:32.043Z,57.70
2017-06-16T22:09:59.500Z,58.40
2017-06-16T22:12:26.979Z,57.70
2017-06-16T22:14:54.438Z,57.70
2017-06-16T22:17:21.906Z,58.90
2017-06-16T22:19:50.134Z,57.80
2017-06-16T22:22:17.623Z,57.80
2017-06-16T22:24:45.082Z,57.50
2017-06-16T22:27:12.539Z,57.80
2017-06-16T22:29:40.003Z,57.90
2017-06-16T22:32:07.552Z,58.00
2017-06-16T22:34:35.025Z,58.40
2017-06-16T22:37:03.251Z,57.50
2017-06-16T22:39:30.743Z,57.50
2017-06-16T22:41:58.198Z,57.80
2017-06-16T22:44:25.750Z,57.80
2017-06-16T22:46:53.202Z,57.70
2017-06-16T22:49:20.666Z,58.00
2017-06-16T22:51:48.214Z,57.50
2017-06-16T22:54:15.779Z,57.80
2017-06-16T22:56:43.231Z,57.70
2017-06-16T22:59:10.686Z,57.20
2017-06-16T23:01:38.153Z,57.30
2017-06-16T23:04:05.706Z,57.50
2017-06-16T23:06:33.167Z,57.50
2017-06-16T23:09:00.634Z,57.80
2017-06-16T23:11:28.183Z,57.80
2017-06-16T23:13:55.638Z,58.40
2017-06-16T23:16:23.198Z,58.30
2017-06-16T23:18:50.665Z,59.80
2017-06-16T23:21:18.899Z,58.00
2017-06-16T23:23:46.351Z,58.00
2017-06-16T23:26:13.831Z,58.30
2017-06-16T23:28:41.289Z,58.30
2017-06-16T23:31:08.851Z,58.70
2017-06-16T23:33:36.311Z,59.00
2017-06-16T23:36:03.766Z,59.10
2017-06-16T23:38:31.242Z,58.70
2017-06-16T23:40:59.458Z,58.80
2017-06-16T23:43:26.926Z,58.80
2017-06-16T23:45:54.392Z,58.40
2017-06-16T23:48:21.850Z,59.40
2017-06-16T23:50:49.307Z,59.00
2017-06-16T23:53:16.775Z,58.30
2017-06-16T23:55:44.340Z,58.40
2017-06-16T23:58:11.806Z,58.50
